ENQB weather

Troll B Platform
Norway

Public forecast

Using degrees Celsius for public forecast. Weather courtesy of forecast.io.

METAR (pilot weather report)

Closest report is Troll C Platform, 7.4 nm (13.8 km) NNE. Retrieved 2019/07/16 18:20 UTC (0 seconds ago):

ENQC 161820Z AUTO 33014KT 9999NDV FEW016/// 14/09 Q1014 W///S3

TAF (pilot weather forecast)

Closest forecast is Oseberg A Platform, 26.1 nm (48.4 km) SW. Retrieved 2019/07/16 18:57 UTC (0 seconds ago):

TAF ENOA 161700Z 1618/1718 35012KT 9999 BKN020 PROB40 1618/1718 BKN010 BECMG 1620/1623 VRB06KT